createdAt,value
2023-01-13T00:02:03.963Z,5.35
2023-01-13T00:04:36.085Z,5.43
2023-01-13T00:07:08.207Z,12.13
2023-01-13T00:09:40.274Z,7.03
2023-01-13T00:12:12.307Z,4.55
2023-01-13T00:14:44.413Z,5.13
2023-01-13T00:17:16.527Z,12.07
2023-01-13T00:19:48.646Z,7.28
2023-01-13T00:22:20.637Z,9.30
2023-01-13T00:24:52.645Z,6.50
2023-01-13T00:27:25.466Z,5.43
2023-01-13T00:29:57.626Z,8.40
2023-01-13T00:32:29.740Z,11.50
2023-01-13T00:35:01.862Z,10.68
2023-01-13T00:37:38.325Z,8.93
2023-01-13T00:40:11.537Z,7.70
2023-01-13T00:43:01.852Z,6.18
2023-01-13T00:48:06.285Z,14.27
2023-01-13T00:50:38.265Z,6.45
2023-01-13T00:53:10.319Z,12.48
2023-01-13T00:55:42.400Z,7.82
2023-01-13T00:58:14.563Z,9.48
2023-01-13T01:00:46.592Z,5.88
2023-01-13T01:03:18.639Z,16.33
2023-01-13T01:05:50.641Z,10.50
2023-01-13T01:08:22.977Z,25.42
2023-01-13T01:11:07.429Z,19.77
2023-01-13T01:13:39.977Z,14.38
2023-01-13T01:16:15.670Z,7.55
2023-01-13T01:18:50.286Z,10.90
2023-01-13T01:21:24.269Z,15.52
2023-01-13T01:24:00.142Z,18.52
2023-01-13T01:26:32.616Z,22.92
2023-01-13T01:29:04.729Z,18.08
2023-01-13T01:31:36.752Z,15.13
2023-01-13T01:34:08.883Z,16.95
2023-01-13T01:36:41.431Z,21.02
2023-01-13T01:39:13.442Z,16.88
2023-01-13T01:42:05.492Z,18.60
2023-01-13T01:44:43.561Z,17.40
2023-01-13T01:47:18.306Z,12.55
2023-01-13T01:49:50.836Z,9.25
2023-01-13T01:52:34.679Z,14.40
2023-01-13T01:55:20.805Z,19.30
2023-01-13T01:58:03.369Z,13.73
2023-01-13T02:00:35.391Z,20.27
2023-01-13T02:03:09.293Z,23.27
2023-01-13T02:05:41.762Z,32.25
2023-01-13T02:08:14.936Z,22.48
2023-01-13T02:10:53.590Z,22.10
2023-01-13T02:13:25.685Z,23.98
2023-01-13T02:16:17.410Z,20.75
2023-01-13T02:19:05.224Z,34.42
2023-01-13T02:22:13.252Z,26.83
2023-01-13T02:25:36.385Z,23.45
2023-01-13T02:29:06.017Z,31.85
2023-01-13T02:31:42.576Z,33.67
2023-01-13T02:34:26.512Z,22.30
2023-01-13T02:37:03.581Z,21.10
2023-01-13T02:39:56.306Z,28.35
2023-01-13T02:42:53.809Z,18.75
2023-01-13T02:45:32.849Z,35.40
2023-01-13T02:48:08.269Z,19.92
2023-01-13T02:51:09.667Z,29.88
2023-01-13T02:53:57.777Z,37.60
2023-01-13T02:56:32.962Z,24.92
2023-01-13T02:59:06.517Z,24.17
2023-01-13T03:01:38.790Z,28.23
2023-01-13T03:04:35.818Z,29.85
2023-01-13T03:07:17.462Z,34.95
2023-01-13T03:10:11.894Z,34.50
2023-01-13T03:13:19.568Z,30.48
2023-01-13T03:16:28.715Z,36.90
2023-01-13T03:19:41.716Z,36.80
2023-01-13T03:22:31.904Z,31.75
2023-01-13T03:25:19.038Z,28.70
2023-01-13T03:28:03.601Z,30.00
2023-01-13T03:30:48.822Z,26.90
2023-01-13T03:33:29.896Z,17.33
2023-01-13T03:36:09.520Z,21.42
2023-01-13T03:38:51.242Z,31.17
2023-01-13T03:41:39.182Z,48.72
2023-01-13T03:44:28.149Z,32.53
2023-01-13T03:47:16.245Z,39.58
2023-01-13T03:50:13.879Z,37.08
2023-01-13T03:53:02.100Z,33.47
2023-01-13T03:55:39.574Z,29.92
2023-01-13T03:58:23.681Z,31.70
2023-01-13T04:01:11.655Z,36.80
2023-01-13T04:04:05.829Z,32.42
2023-01-13T04:06:55.693Z,36.72
2023-01-13T04:09:50.834Z,22.05
2023-01-13T04:12:49.385Z,25.27
2023-01-13T04:15:24.966Z,29.85
2023-01-13T04:18:10.864Z,31.13
2023-01-13T04:20:45.933Z,41.33
2023-01-13T04:23:19.799Z,43.20
2023-01-13T04:25:52.276Z,26.02
2023-01-13T04:28:25.477Z,36.17
2023-01-13T04:30:57.847Z,32.25
2023-01-13T04:33:29.868Z,28.58
2023-01-13T04:36:01.783Z,36.67
2023-01-13T04:38:33.769Z,30.90
2023-01-13T04:41:05.974Z,36.63
2023-01-13T04:43:37.936Z,36.38
2023-01-13T04:46:09.933Z,31.70
2023-01-13T04:48:42.024Z,29.77
2023-01-13T04:51:14.020Z,33.35
2023-01-13T04:53:46.937Z,33.28
2023-01-13T04:56:19.055Z,23.95
2023-01-13T04:58:51.158Z,35.83
2023-01-13T05:01:23.138Z,37.75
2023-01-13T05:03:55.176Z,38.35
2023-01-13T05:06:27.232Z,38.88
2023-01-13T05:08:59.504Z,32.83
2023-01-13T05:11:49.795Z,37.13
2023-01-13T05:17:21.201Z,28.63
2023-01-13T05:19:53.220Z,28.80
2023-01-13T05:22:43.466Z,27.77
2023-01-13T05:25:28.288Z,37.22
2023-01-13T05:28:00.723Z,34.63
2023-01-13T05:30:38.524Z,30.48
2023-01-13T05:33:17.087Z,33.70
2023-01-13T05:35:49.755Z,32.30
2023-01-13T05:38:21.834Z,32.67
2023-01-13T05:41:12.161Z,32.35
2023-01-13T05:46:17.825Z,42.50
2023-01-13T05:48:50.014Z,37.72
2023-01-13T05:51:26.377Z,38.00
2023-01-13T05:53:59.294Z,31.38
2023-01-13T05:56:31.265Z,31.58
2023-01-13T05:59:03.708Z,31.20
2023-01-13T06:01:37.236Z,32.25
2023-01-13T06:04:09.289Z,37.03
2023-01-13T06:06:43.219Z,21.63
2023-01-13T06:09:15.483Z,32.08
2023-01-13T06:11:48.580Z,33.15
2023-01-13T06:14:20.618Z,42.75
2023-01-13T06:16:52.583Z,33.50
2023-01-13T06:19:24.535Z,43.70
2023-01-13T06:21:58.018Z,37.05
2023-01-13T06:24:29.964Z,26.23
2023-01-13T06:27:01.980Z,34.35
2023-01-13T06:29:34.163Z,40.95
2023-01-13T06:32:14.093Z,31.98
2023-01-13T06:34:53.495Z,34.38
2023-01-13T06:37:26.751Z,43.07
2023-01-13T06:40:01.996Z,33.95
2023-01-13T06:42:55.263Z,31.40
2023-01-13T06:45:29.170Z,27.70
2023-01-13T06:48:01.271Z,27.50
2023-01-13T06:50:33.233Z,28.52
2023-01-13T06:53:05.263Z,29.75
2023-01-13T06:55:37.573Z,41.72
2023-01-13T06:58:09.714Z,28.02
2023-01-13T07:00:41.866Z,28.27
2023-01-13T07:03:16.318Z,40.65
2023-01-13T07:05:54.082Z,42.75
2023-01-13T07:08:26.216Z,31.63
2023-01-13T07:10:58.314Z,27.23
2023-01-13T07:13:49.197Z,33.38
2023-01-13T07:16:21.158Z,38.15
2023-01-13T07:18:53.144Z,32.30
2023-01-13T07:21:25.061Z,27.38
2023-01-13T07:23:57.876Z,20.15
2023-01-13T07:26:29.944Z,32.28
2023-01-13T07:29:01.920Z,38.30
2023-01-13T07:31:33.910Z,36.72
2023-01-13T07:34:07.435Z,27.27
2023-01-13T07:36:42.496Z,29.05
2023-01-13T07:39:14.539Z,33.22
2023-01-13T07:42:05.365Z,28.63
2023-01-13T07:44:38.105Z,29.70
2023-01-13T07:47:11.433Z,31.40
2023-01-13T07:49:43.457Z,23.73
2023-01-13T07:52:15.580Z,37.58
2023-01-13T07:54:47.557Z,29.83
2023-01-13T07:57:19.585Z,33.83
2023-01-13T07:59:51.576Z,30.95
2023-01-13T08:02:23.886Z,35.97
2023-01-13T08:04:56.009Z,28.63
2023-01-13T08:07:28.006Z,23.60
2023-01-13T08:10:00.138Z,24.65
2023-01-13T08:12:53.540Z,25.33
2023-01-13T08:15:29.879Z,16.67
2023-01-13T08:18:01.841Z,15.80
2023-01-13T08:20:34.751Z,32.85
2023-01-13T08:23:07.479Z,24.80
2023-01-13T08:25:39.651Z,26.13
2023-01-13T08:28:13.154Z,17.48
2023-01-13T08:30:45.389Z,21.60
2023-01-13T08:33:17.681Z,31.35
2023-01-13T08:35:52.763Z,27.15
2023-01-13T08:38:25.359Z,14.77
2023-01-13T08:40:57.714Z,22.52
2023-01-13T08:43:29.731Z,21.83
2023-01-13T08:46:05.013Z,23.30
2023-01-13T08:48:37.952Z,22.02
2023-01-13T08:51:11.195Z,15.30
2023-01-13T08:53:43.196Z,17.23
2023-01-13T08:56:15.426Z,19.80
2023-01-13T08:58:47.405Z,19.73
2023-01-13T09:01:23.632Z,20.30
2023-01-13T09:03:55.829Z,17.48
2023-01-13T09:06:27.918Z,16.83
2023-01-13T09:09:00.441Z,14.65
2023-01-13T09:11:55.984Z,21.98
2023-01-13T09:14:32.376Z,12.60
2023-01-13T09:17:04.761Z,14.55
2023-01-13T09:19:37.455Z,23.05
2023-01-13T09:22:15.812Z,25.58
2023-01-13T09:24:47.777Z,24.40
2023-01-13T09:27:20.772Z,25.27
2023-01-13T09:29:52.741Z,17.20
2023-01-13T09:32:24.918Z,29.23
2023-01-13T09:35:00.049Z,22.83
2023-01-13T09:37:36.179Z,16.15
2023-01-13T09:40:19.555Z,14.35
2023-01-13T09:43:15.447Z,12.13
2023-01-13T09:45:54.972Z,23.63
2023-01-13T09:48:52.258Z,21.42
2023-01-13T09:51:34.078Z,22.75
2023-01-13T09:54:28.267Z,17.98
2023-01-13T09:57:01.231Z,23.50
2023-01-13T09:59:36.537Z,23.77
2023-01-13T10:02:34.498Z,27.85
2023-01-13T10:05:20.552Z,22.52
2023-01-13T10:08:04.613Z,25.23
2023-01-13T10:10:48.993Z,29.17
2023-01-13T10:13:31.823Z,19.83
2023-01-13T10:16:19.024Z,21.02
2023-01-13T10:19:31.215Z,15.75
2023-01-13T10:22:21.308Z,30.85
2023-01-13T10:25:24.056Z,14.25
2023-01-13T10:28:04.294Z,20.48
2023-01-13T10:33:41.779Z,25.95
2023-01-13T10:36:23.084Z,21.55
2023-01-13T10:39:16.015Z,24.48
2023-01-13T10:41:48.057Z,26.70
2023-01-13T10:44:20.059Z,23.45
2023-01-13T10:46:58.395Z,19.88
2023-01-13T10:49:39.036Z,23.30
2023-01-13T10:52:40.064Z,36.92
2023-01-13T10:55:26.079Z,23.70
2023-01-13T10:58:29.666Z,20.33
2023-01-13T11:01:44.201Z,20.58
2023-01-13T11:04:45.369Z,26.08
2023-01-13T11:07:34.093Z,25.35
2023-01-13T11:10:32.640Z,22.75
2023-01-13T11:13:14.631Z,29.75
2023-01-13T11:16:02.057Z,27.17
2023-01-13T11:19:02.619Z,24.65
2023-01-13T11:25:01.613Z,16.35
2023-01-13T11:28:04.371Z,26.85
2023-01-13T11:30:45.615Z,19.98
2023-01-13T11:33:45.518Z,24.92
2023-01-13T11:36:25.333Z,26.30
2023-01-13T11:39:28.602Z,25.35
2023-01-13T11:42:22.460Z,18.83
2023-01-13T11:45:17.051Z,28.42
2023-01-13T11:47:52.758Z,17.27
2023-01-13T11:50:51.205Z,21.73
2023-01-13T11:53:29.023Z,16.95
2023-01-13T11:56:56.047Z,19.45
2023-01-13T12:00:21.339Z,13.57
2023-01-13T12:03:25.593Z,25.85
2023-01-13T12:06:28.451Z,21.63
2023-01-13T12:09:44.759Z,22.65
2023-01-13T12:12:37.465Z,21.00
2023-01-13T12:15:24.346Z,15.05
2023-01-13T12:18:35.888Z,22.00
2023-01-13T12:21:20.642Z,23.98
2023-01-13T12:24:03.780Z,23.30
2023-01-13T12:26:42.149Z,32.88
2023-01-13T12:29:20.356Z,13.32
2023-01-13T12:31:53.629Z,26.05
2023-01-13T12:35:06.856Z,23.73
2023-01-13T12:38:35.831Z,16.73
2023-01-13T12:42:09.129Z,21.52
2023-01-13T12:45:08.133Z,22.52
2023-01-13T12:47:45.629Z,15.43
2023-01-13T12:50:40.884Z,27.10
2023-01-13T12:53:33.869Z,14.98
2023-01-13T12:56:30.823Z,21.10
2023-01-13T12:59:28.806Z,22.73
2023-01-13T13:02:13.246Z,16.17
2023-01-13T13:04:52.057Z,22.20
2023-01-13T13:07:41.003Z,22.42
2023-01-13T13:10:12.909Z,17.23
2023-01-13T13:13:03.838Z,23.30
2023-01-13T13:15:39.979Z,18.40
2023-01-13T13:18:18.062Z,22.42
2023-01-13T13:21:09.374Z,18.67
2023-01-13T13:24:05.882Z,23.90
2023-01-13T13:26:46.205Z,16.30
2023-01-13T13:32:19.762Z,17.73
2023-01-13T13:35:14.417Z,18.45
2023-01-13T13:38:22.625Z,30.95
2023-01-13T13:41:13.590Z,29.67
2023-01-13T13:44:04.975Z,21.15
2023-01-13T13:46:54.060Z,20.83
2023-01-13T13:50:16.851Z,28.42
2023-01-13T13:53:08.443Z,18.52
2023-01-13T13:55:53.222Z,18.13
2023-01-13T13:58:29.151Z,29.17
2023-01-13T14:01:10.691Z,15.35
2023-01-13T14:03:43.259Z,21.58
2023-01-13T14:06:24.418Z,23.75
2023-01-13T14:08:56.349Z,18.80
2023-01-13T14:11:37.915Z,23.63
2023-01-13T14:14:19.007Z,19.58
2023-01-13T14:19:46.253Z,23.90
2023-01-13T14:22:18.518Z,20.90
2023-01-13T14:24:55.799Z,15.30
2023-01-13T14:27:30.484Z,20.35
2023-01-13T14:30:03.050Z,23.50
2023-01-13T14:32:38.086Z,20.45
2023-01-13T14:35:16.535Z,16.98
2023-01-13T14:37:54.418Z,14.82
2023-01-13T14:40:40.708Z,15.05
2023-01-13T14:43:16.839Z,10.88
2023-01-13T14:46:01.747Z,21.17
2023-01-13T14:48:41.223Z,20.25
2023-01-13T14:51:24.014Z,24.50
2023-01-13T14:53:58.203Z,20.30
2023-01-13T14:56:49.653Z,19.83
2023-01-13T14:59:44.781Z,18.92
2023-01-13T15:02:33.522Z,22.17
2023-01-13T15:05:19.019Z,12.27
2023-01-13T15:08:14.064Z,16.48
2023-01-13T15:11:00.113Z,17.05
2023-01-13T15:13:36.008Z,19.48
2023-01-13T15:16:27.424Z,14.52
2023-01-13T15:19:00.105Z,9.05
2023-01-13T15:21:33.661Z,11.00
2023-01-13T15:24:07.967Z,22.17
2023-01-13T15:26:40.664Z,22.52
2023-01-13T15:29:15.449Z,10.00
2023-01-13T15:31:48.194Z,19.73
2023-01-13T15:34:20.998Z,16.70
2023-01-13T15:36:52.995Z,14.48
2023-01-13T15:39:24.939Z,16.27
2023-01-13T15:42:15.864Z,14.27
2023-01-13T15:45:06.316Z,18.88
2023-01-13T15:47:38.373Z,14.93
2023-01-13T15:50:18.463Z,16.85
2023-01-13T15:52:56.916Z,7.03
2023-01-13T15:55:38.255Z,16.58
2023-01-13T15:58:19.175Z,15.65
2023-01-13T16:00:53.520Z,15.25
2023-01-13T16:03:27.648Z,9.43
2023-01-13T16:05:59.612Z,24.70
2023-01-13T16:08:34.262Z,10.07
2023-01-13T16:11:07.601Z,16.48
2023-01-13T16:13:39.759Z,9.88
2023-01-13T16:16:24.847Z,11.70
2023-01-13T16:18:57.715Z,12.55
2023-01-13T16:21:30.338Z,6.07
2023-01-13T16:24:22.623Z,17.77
2023-01-13T16:26:55.285Z,18.58
2023-01-13T16:29:27.546Z,17.40
2023-01-13T16:32:00.227Z,14.38
2023-01-13T16:34:35.145Z,11.10
2023-01-13T16:37:26.457Z,16.40
2023-01-13T16:40:01.984Z,12.45
2023-01-13T16:42:34.255Z,17.88
2023-01-13T16:45:12.677Z,18.45
2023-01-13T16:47:45.193Z,17.02
2023-01-13T16:50:33.726Z,8.35
2023-01-13T16:53:09.384Z,23.92
2023-01-13T16:55:48.459Z,13.88
2023-01-13T16:58:22.006Z,10.82
2023-01-13T17:01:21.114Z,13.38
2023-01-13T17:03:55.280Z,18.33
2023-01-13T17:06:33.400Z,11.90
2023-01-13T17:09:20.428Z,13.15
2023-01-13T17:11:54.388Z,13.82
2023-01-13T17:17:32.269Z,9.48
2023-01-13T17:20:06.848Z,13.88
2023-01-13T17:22:39.652Z,11.30
2023-01-13T17:25:15.395Z,18.77
2023-01-13T17:27:49.932Z,15.10
2023-01-13T17:30:22.671Z,19.00
2023-01-13T17:32:55.976Z,20.95
2023-01-13T17:35:34.460Z,24.33
2023-01-13T17:38:07.742Z,24.52
2023-01-13T17:41:31.152Z,9.68
2023-01-13T17:44:06.313Z,12.45
2023-01-13T17:46:42.359Z,10.20
2023-01-13T17:49:17.536Z,19.00
2023-01-13T17:51:52.343Z,11.30
2023-01-13T17:54:30.954Z,19.33
2023-01-13T17:57:04.146Z,22.85
2023-01-13T17:59:38.730Z,7.72
2023-01-13T18:02:33.476Z,11.50
2023-01-13T18:05:06.054Z,6.57
2023-01-13T18:07:38.443Z,3.65
2023-01-13T18:13:57.297Z,4.57
2023-01-13T18:16:31.695Z,7.05
2023-01-13T18:19:23.119Z,9.55
2023-01-13T18:22:13.863Z,15.15
2023-01-13T18:25:04.964Z,11.80
2023-01-13T18:27:40.570Z,13.27
2023-01-13T18:30:15.073Z,23.83
2023-01-13T18:32:51.838Z,10.60
2023-01-13T18:35:24.016Z,18.65
2023-01-13T18:37:55.969Z,15.45
2023-01-13T18:40:27.953Z,17.60
2023-01-13T18:43:00.712Z,22.65
2023-01-13T18:45:32.885Z,14.45
2023-01-13T18:48:07.073Z,16.35
2023-01-13T18:51:25.163Z,15.77
2023-01-13T18:53:57.510Z,11.55
2023-01-13T18:56:44.883Z,19.55
2023-01-13T19:00:00.351Z,17.42
2023-01-13T19:03:09.378Z,17.25
2023-01-13T19:05:46.835Z,21.05
2023-01-13T19:08:19.016Z,8.32
2023-01-13T19:11:49.469Z,11.65
2023-01-13T19:17:17.137Z,11.18
2023-01-13T19:22:57.309Z,17.42
2023-01-13T19:25:29.390Z,15.43
2023-01-13T19:28:01.368Z,14.95
2023-01-13T19:30:33.325Z,12.63
2023-01-13T19:33:05.288Z,14.32
2023-01-13T19:35:37.832Z,17.10
2023-01-13T19:38:27.014Z,8.93
2023-01-13T19:44:52.328Z,12.20
2023-01-13T19:47:24.361Z,18.75
2023-01-13T19:49:58.400Z,17.35
2023-01-13T19:52:36.085Z,15.52
2023-01-13T19:58:05.663Z,22.52
2023-01-13T20:00:57.718Z,21.63
2023-01-13T20:03:38.626Z,20.45
2023-01-13T20:06:10.979Z,15.20
2023-01-13T20:08:46.180Z,20.58
2023-01-13T20:11:28.236Z,17.60
2023-01-13T20:15:02.122Z,17.88
2023-01-13T20:17:49.040Z,13.07
2023-01-13T20:20:22.808Z,22.73
2023-01-13T20:26:51.772Z,20.58
2023-01-13T20:29:24.163Z,19.60
2023-01-13T20:31:57.904Z,23.90
2023-01-13T20:34:30.225Z,19.38
2023-01-13T20:37:02.277Z,14.38
2023-01-13T20:39:44.758Z,19.38
2023-01-13T20:45:04.595Z,18.33
2023-01-13T20:47:38.643Z,21.95
2023-01-13T20:50:13.195Z,16.63
2023-01-13T20:52:47.770Z,29.10
2023-01-13T20:55:19.847Z,13.65
2023-01-13T20:57:52.985Z,19.83
2023-01-13T21:00:25.239Z,25.40
2023-01-13T21:02:57.249Z,26.58
2023-01-13T21:08:15.486Z,12.75
2023-01-13T21:10:50.013Z,9.65
2023-01-13T21:13:42.120Z,9.95
2023-01-13T21:16:24.074Z,16.25
2023-01-13T21:19:10.666Z,12.88
2023-01-13T21:22:20.025Z,15.27
2023-01-13T21:25:02.572Z,21.70
2023-01-13T21:30:27.742Z,16.05
2023-01-13T21:33:00.926Z,18.88
2023-01-13T21:35:35.035Z,13.27
2023-01-13T21:38:08.843Z,21.38
2023-01-13T21:40:42.892Z,12.48
2023-01-13T21:43:33.295Z,14.32
2023-01-13T21:49:03.414Z,9.93
2023-01-13T21:51:35.726Z,16.23
2023-01-13T21:54:09.332Z,18.40
2023-01-13T21:56:41.321Z,15.15
2023-01-13T21:59:20.565Z,21.95
2023-01-13T22:02:24.154Z,13.90
2023-01-13T22:05:02.609Z,15.75
2023-01-13T22:07:37.818Z,13.00
2023-01-13T22:10:15.016Z,26.17
2023-01-13T22:12:48.288Z,16.42
2023-01-13T22:18:07.352Z,19.05
2023-01-13T22:20:42.108Z,14.38
2023-01-13T22:23:14.185Z,10.32
2023-01-13T22:25:46.314Z,16.52
2023-01-13T22:28:24.109Z,18.10
2023-01-13T22:30:56.181Z,23.05
2023-01-13T22:33:28.521Z,12.80
2023-01-13T22:36:12.570Z,26.77
2023-01-13T22:38:46.369Z,12.45
2023-01-13T22:41:24.862Z,19.60
2023-01-13T22:44:29.152Z,11.98
2023-01-13T22:47:57.073Z,18.50
2023-01-13T22:50:31.662Z,17.98
2023-01-13T22:53:03.739Z,17.90
2023-01-13T22:59:37.885Z,8.25
2023-01-13T23:02:09.885Z,9.90
2023-01-13T23:07:37.758Z,15.57
2023-01-13T23:10:10.571Z,10.68
2023-01-13T23:12:43.348Z,10.10
2023-01-13T23:15:15.482Z,11.30
2023-01-13T23:17:56.678Z,8.52
2023-01-13T23:20:32.555Z,13.27
2023-01-13T23:23:05.585Z,13.52
2023-01-13T23:25:37.598Z,15.95
2023-01-13T23:28:11.210Z,8.73
2023-01-13T23:30:43.437Z,13.82
2023-01-13T23:33:16.397Z,5.57
2023-01-13T23:36:05.724Z,9.07
2023-01-13T23:38:38.508Z,9.20
2023-01-13T23:41:14.956Z,10.85
2023-01-13T23:43:53.148Z,4.22
2023-01-13T23:46:30.430Z,14.15
2023-01-13T23:49:06.115Z,7.63
2023-01-13T23:54:42.987Z,14.02
2023-01-13T23:57:17.085Z,12.25
2023-01-13T23:59:53.197Z,10.40
